createdAt,value
2023-02-22T00:01:33.438Z,2.20
2023-02-22T00:04:00.018Z,1.90
2023-02-22T00:06:26.679Z,1.40
2023-02-22T00:08:53.392Z,1.60
2023-02-22T00:11:20.674Z,1.77
2023-02-22T00:13:47.737Z,1.80
2023-02-22T00:16:20.240Z,1.67
2023-02-22T00:18:47.488Z,1.33
2023-02-22T00:21:16.593Z,1.80
2023-02-22T00:23:48.797Z,1.33
2023-02-22T00:26:18.899Z,1.83
2023-02-22T00:28:48.994Z,1.53
2023-02-22T00:31:16.339Z,1.50
2023-02-22T00:33:43.756Z,2.07
2023-02-22T00:36:12.828Z,1.77
2023-02-22T00:38:41.185Z,2.10
2023-02-22T00:41:07.981Z,1.50
2023-02-22T00:43:34.942Z,1.33
2023-02-22T00:46:01.966Z,1.87
2023-02-22T00:48:29.074Z,3.23
2023-02-22T00:50:55.692Z,2.70
2023-02-22T00:53:25.178Z,0.93
2023-02-22T00:55:52.237Z,1.73
2023-02-22T00:58:19.147Z,2.23
2023-02-22T01:00:46.919Z,1.90
2023-02-22T01:03:18.804Z,1.90
2023-02-22T01:05:46.673Z,2.57
2023-02-22T01:08:15.548Z,2.30
2023-02-22T01:10:43.315Z,2.30
2023-02-22T01:13:12.399Z,2.40
2023-02-22T01:15:42.126Z,2.00
2023-02-22T01:18:10.087Z,2.67
2023-02-22T01:20:37.563Z,4.63
2023-02-22T01:23:07.771Z,4.20
2023-02-22T01:25:35.656Z,2.90
2023-02-22T01:28:04.311Z,3.07
2023-02-22T01:30:33.651Z,3.40
2023-02-22T01:33:02.293Z,3.47
2023-02-22T01:35:33.063Z,3.57
2023-02-22T01:38:00.254Z,3.20
2023-02-22T01:40:33.373Z,5.47
2023-02-22T01:43:10.037Z,4.03
2023-02-22T01:45:47.841Z,4.60
2023-02-22T01:48:39.554Z,7.73
2023-02-22T01:51:19.251Z,4.87
2023-02-22T01:53:55.279Z,5.90
2023-02-22T01:56:24.740Z,6.73
2023-02-22T01:58:56.113Z,7.30
2023-02-22T02:01:25.542Z,7.93
2023-02-22T02:03:58.253Z,7.70
2023-02-22T02:06:27.356Z,10.13
2023-02-22T02:09:11.957Z,10.07
2023-02-22T02:11:41.626Z,8.53
2023-02-22T02:14:10.092Z,9.37
2023-02-22T02:16:46.661Z,7.97
2023-02-22T02:19:25.692Z,10.37
2023-02-22T02:21:52.234Z,8.93
2023-02-22T02:24:50.565Z,8.87
2023-02-22T02:27:24.078Z,8.13
2023-02-22T02:30:46.874Z,8.13
2023-02-22T02:33:29.391Z,7.67
2023-02-22T02:36:08.426Z,9.20
2023-02-22T02:38:56.624Z,8.53
2023-02-22T02:41:42.559Z,7.30
2023-02-22T02:44:22.994Z,6.73
2023-02-22T02:46:56.301Z,6.77
2023-02-22T02:49:31.020Z,8.43
2023-02-22T02:51:59.387Z,8.23
2023-02-22T02:54:28.209Z,8.83
2023-02-22T02:56:57.130Z,8.13
2023-02-22T02:59:26.375Z,7.77
2023-02-22T03:02:08.183Z,6.60
2023-02-22T03:04:48.961Z,8.03
2023-02-22T03:07:20.613Z,7.67
2023-02-22T03:09:58.494Z,9.47
2023-02-22T03:12:58.449Z,7.67
2023-02-22T03:15:45.223Z,9.60
2023-02-22T03:18:25.301Z,8.30
2023-02-22T03:21:00.156Z,8.37
2023-02-22T03:23:38.019Z,9.37
2023-02-22T03:26:12.044Z,10.30
2023-02-22T03:28:43.048Z,9.90
2023-02-22T03:31:22.806Z,12.27
2023-02-22T03:33:54.478Z,8.47
2023-02-22T03:36:25.715Z,6.57
2023-02-22T03:38:57.797Z,7.13
2023-02-22T03:41:26.803Z,7.37
2023-02-22T03:44:07.050Z,8.33
2023-02-22T03:46:35.887Z,9.53
2023-02-22T03:49:12.252Z,8.67
2023-02-22T03:51:40.759Z,7.53
2023-02-22T03:54:11.937Z,8.13
2023-02-22T03:56:47.206Z,6.90
2023-02-22T03:59:14.757Z,6.93
2023-02-22T04:01:41.546Z,6.40
2023-02-22T04:04:08.349Z,7.07
2023-02-22T04:06:37.750Z,7.73
2023-02-22T04:09:04.768Z,5.20
2023-02-22T04:11:32.065Z,6.13
2023-02-22T04:14:00.802Z,4.37
2023-02-22T04:16:28.035Z,4.33
2023-02-22T04:18:54.904Z,4.77
2023-02-22T04:21:21.559Z,5.73
2023-02-22T04:23:51.009Z,5.47
2023-02-22T04:26:18.077Z,5.17
2023-02-22T04:28:50.466Z,4.37
2023-02-22T04:31:19.517Z,6.97
2023-02-22T04:33:46.337Z,7.07
2023-02-22T04:36:16.321Z,6.63
2023-02-22T04:38:44.441Z,5.10
2023-02-22T04:41:11.405Z,5.00
2023-02-22T04:43:38.094Z,6.00
2023-02-22T04:46:24.970Z,4.27
2023-02-22T04:48:53.366Z,6.20
2023-02-22T04:51:22.848Z,6.50
2023-02-22T04:53:56.346Z,6.57
2023-02-22T04:56:23.533Z,7.37
2023-02-22T04:58:50.195Z,7.20
2023-02-22T05:01:17.281Z,5.33
2023-02-22T05:03:46.421Z,6.63
2023-02-22T05:06:13.070Z,8.23
2023-02-22T05:08:39.686Z,7.63
2023-02-22T05:11:06.355Z,7.93
2023-02-22T05:13:32.977Z,6.33
2023-02-22T05:15:59.635Z,9.97
2023-02-22T05:18:26.220Z,6.67
2023-02-22T05:20:54.216Z,6.40
2023-02-22T05:23:21.049Z,5.83
2023-02-22T05:25:47.920Z,6.90
2023-02-22T05:28:15.676Z,7.03
2023-02-22T05:30:42.459Z,5.80
2023-02-22T05:33:09.873Z,5.70
2023-02-22T05:35:37.235Z,6.33
2023-02-22T05:38:04.588Z,5.77
2023-02-22T05:40:32.438Z,7.27
2023-02-22T05:43:00.798Z,5.73
2023-02-22T05:45:28.866Z,6.70
2023-02-22T05:47:56.038Z,5.63
2023-02-22T05:50:24.482Z,6.80
2023-02-22T05:52:52.176Z,7.83
2023-02-22T05:55:20.707Z,6.33
2023-02-22T05:57:47.766Z,5.20
2023-02-22T06:00:18.786Z,6.00
2023-02-22T06:02:45.635Z,6.50
2023-02-22T06:05:12.330Z,6.20
2023-02-22T06:07:38.905Z,6.60
2023-02-22T06:10:05.856Z,5.67
2023-02-22T06:12:32.420Z,6.27
2023-02-22T06:14:59.026Z,7.07
2023-02-22T06:17:25.585Z,7.13
2023-02-22T06:20:02.621Z,6.43
2023-02-22T06:22:29.195Z,8.40
2023-02-22T06:24:55.769Z,7.20
2023-02-22T06:27:22.345Z,7.07
2023-02-22T06:29:48.930Z,7.27
2023-02-22T06:32:15.546Z,7.53
2023-02-22T06:34:42.111Z,5.57
2023-02-22T06:37:08.761Z,6.10
2023-02-22T06:39:35.370Z,6.53
2023-02-22T06:42:02.058Z,7.23
2023-02-22T06:44:28.671Z,9.13
2023-02-22T06:46:56.329Z,8.40
2023-02-22T06:49:22.896Z,7.57
2023-02-22T06:51:49.534Z,7.57
2023-02-22T06:54:16.113Z,9.07
2023-02-22T06:56:42.704Z,7.30
2023-02-22T06:59:09.295Z,9.83
2023-02-22T07:01:35.938Z,8.87
2023-02-22T07:04:02.561Z,8.87
2023-02-22T07:06:29.193Z,7.53
2023-02-22T07:08:55.854Z,7.17
2023-02-22T07:11:22.534Z,7.70
2023-02-22T07:13:49.205Z,7.43
2023-02-22T07:16:15.922Z,4.97
2023-02-22T07:18:42.515Z,7.20
2023-02-22T07:21:09.168Z,6.27
2023-02-22T07:23:35.824Z,4.87
2023-02-22T07:26:05.294Z,5.13
2023-02-22T07:28:31.857Z,4.77
2023-02-22T07:30:58.923Z,4.53
2023-02-22T07:33:25.657Z,3.87
2023-02-22T07:35:52.294Z,3.77
2023-02-22T07:38:20.452Z,4.70
2023-02-22T07:40:47.190Z,5.03
2023-02-22T07:43:20.446Z,4.80
2023-02-22T07:45:48.513Z,5.33
2023-02-22T07:48:17.756Z,9.20
2023-02-22T07:50:44.890Z,7.80
2023-02-22T07:53:23.552Z,10.57
2023-02-22T07:55:51.229Z,10.10
2023-02-22T07:58:22.969Z,23.93
2023-02-22T08:00:49.581Z,45.40
2023-02-22T08:03:19.022Z,35.77
2023-02-22T08:05:48.007Z,33.07
2023-02-22T08:08:18.174Z,30.33
2023-02-22T08:10:46.127Z,25.80
2023-02-22T08:13:13.170Z,24.90
2023-02-22T08:15:41.396Z,25.23
2023-02-22T08:18:10.947Z,23.07
2023-02-22T08:20:38.711Z,26.27
2023-02-22T08:23:07.180Z,22.47
2023-02-22T08:25:33.829Z,22.50
2023-02-22T08:28:03.276Z,20.97
2023-02-22T08:30:31.530Z,14.30
2023-02-22T08:32:59.365Z,12.60
2023-02-22T08:35:27.550Z,10.30
2023-02-22T08:37:56.791Z,5.57
2023-02-22T08:40:25.208Z,6.63
2023-02-22T08:42:52.328Z,5.87
2023-02-22T08:45:19.282Z,5.90
2023-02-22T08:47:46.083Z,7.33
2023-02-22T08:50:19.915Z,5.55
2023-02-22T08:52:46.607Z,5.03
2023-02-22T08:55:13.439Z,7.23
2023-02-22T08:57:40.026Z,5.80
2023-02-22T09:00:07.292Z,6.30
2023-02-22T09:02:33.886Z,6.32
2023-02-22T09:05:00.455Z,8.20
2023-02-22T09:07:27.630Z,8.13
2023-02-22T09:09:54.269Z,8.85
2023-02-22T09:12:20.844Z,10.70
2023-02-22T09:14:47.402Z,8.52
2023-02-22T09:17:14.081Z,6.32
2023-02-22T09:19:42.266Z,7.85
2023-02-22T09:22:08.847Z,6.55
2023-02-22T09:24:36.099Z,5.18
2023-02-22T09:27:04.549Z,6.13
2023-02-22T09:29:31.140Z,5.22
2023-02-22T09:31:58.077Z,5.57
2023-02-22T09:34:29.680Z,5.53
2023-02-22T09:36:57.852Z,6.07
2023-02-22T09:39:24.731Z,6.70
2023-02-22T09:42:07.667Z,6.70
2023-02-22T09:44:48.106Z,7.60
2023-02-22T09:47:19.546Z,6.53
2023-02-22T09:50:16.329Z,4.88
2023-02-22T09:53:17.900Z,6.57
2023-02-22T09:55:48.549Z,5.22
2023-02-22T09:58:20.857Z,5.85
2023-02-22T10:00:51.684Z,6.00
2023-02-22T10:03:34.738Z,6.80
2023-02-22T10:06:14.937Z,6.32
2023-02-22T10:08:44.790Z,5.65
2023-02-22T10:11:30.456Z,5.32
2023-02-22T10:14:27.623Z,6.82
2023-02-22T10:17:06.259Z,6.30
2023-02-22T10:19:44.369Z,7.65
2023-02-22T10:22:28.100Z,7.68
2023-02-22T10:25:01.184Z,5.70
2023-02-22T10:27:41.071Z,9.68
2023-02-22T10:30:27.824Z,8.88
2023-02-22T10:33:00.686Z,7.80
2023-02-22T10:35:32.774Z,8.02
2023-02-22T10:38:12.553Z,7.65
2023-02-22T10:40:39.334Z,8.00
2023-02-22T10:43:08.276Z,10.85
2023-02-22T10:45:37.093Z,7.88
2023-02-22T10:48:18.534Z,8.15
2023-02-22T10:50:47.029Z,9.32
2023-02-22T10:53:15.490Z,9.25
2023-02-22T10:56:09.822Z,8.13
2023-02-22T10:58:41.653Z,8.07
2023-02-22T11:01:33.675Z,8.40
2023-02-22T11:04:08.802Z,9.45
2023-02-22T11:06:36.337Z,8.27
2023-02-22T11:09:14.203Z,9.15
2023-02-22T11:11:43.438Z,9.02
2023-02-22T11:14:10.959Z,8.85
2023-02-22T11:16:50.969Z,11.73
2023-02-22T11:19:32.171Z,9.77
2023-02-22T11:22:11.445Z,8.93
2023-02-22T11:25:02.434Z,10.05
2023-02-22T11:27:41.641Z,10.60
2023-02-22T11:30:32.918Z,10.27
2023-02-22T11:33:16.910Z,10.93
2023-02-22T11:35:58.252Z,10.20
2023-02-22T11:38:30.898Z,12.00
2023-02-22T11:41:18.224Z,12.10
2023-02-22T11:43:47.889Z,12.48
2023-02-22T11:46:19.595Z,10.10
2023-02-22T11:49:08.859Z,10.68
2023-02-22T11:51:59.334Z,10.07
2023-02-22T11:54:38.155Z,11.88
2023-02-22T11:57:23.530Z,11.38
2023-02-22T11:59:59.899Z,11.55
2023-02-22T12:02:58.064Z,10.27
2023-02-22T12:05:37.331Z,10.65
2023-02-22T12:08:29.988Z,11.43
2023-02-22T12:11:18.264Z,12.95
2023-02-22T12:13:47.815Z,11.80
2023-02-22T12:16:21.376Z,12.63
2023-02-22T12:19:10.997Z,14.73
2023-02-22T12:21:43.165Z,12.27
2023-02-22T12:24:16.420Z,11.18
2023-02-22T12:27:01.230Z,11.25
2023-02-22T12:29:37.584Z,10.85
2023-02-22T12:32:28.953Z,12.95
2023-02-22T12:35:05.420Z,11.63
2023-02-22T12:37:48.497Z,13.48
2023-02-22T12:40:35.508Z,10.88
2023-02-22T12:43:22.479Z,9.85
2023-02-22T12:45:57.308Z,10.63
2023-02-22T12:48:54.046Z,10.55
2023-02-22T12:51:45.398Z,12.18
2023-02-22T12:54:17.765Z,10.93
2023-02-22T12:56:55.672Z,11.60
2023-02-22T12:59:40.401Z,11.88
2023-02-22T13:02:22.835Z,10.73
2023-02-22T13:04:49.731Z,9.57
2023-02-22T13:07:40.270Z,9.55
2023-02-22T13:10:40.573Z,12.75
2023-02-22T13:13:29.877Z,10.32
2023-02-22T13:16:37.213Z,11.70
2023-02-22T13:19:23.967Z,10.52
2023-02-22T13:21:58.123Z,10.93
2023-02-22T13:24:52.663Z,13.57
2023-02-22T13:27:37.697Z,10.45
2023-02-22T13:30:14.762Z,14.55
2023-02-22T13:32:47.142Z,12.10
2023-02-22T13:35:25.892Z,11.40
2023-02-22T13:38:05.898Z,10.25
2023-02-22T13:40:47.449Z,11.57
2023-02-22T13:43:51.501Z,12.48
2023-02-22T13:46:19.319Z,11.52
2023-02-22T13:49:07.694Z,13.75
2023-02-22T13:51:36.926Z,11.93
2023-02-22T13:54:09.474Z,12.88
2023-02-22T13:56:36.227Z,11.80
2023-02-22T13:59:04.780Z,11.65
2023-02-22T14:01:40.953Z,11.73
2023-02-22T14:04:29.080Z,13.95
2023-02-22T14:07:00.863Z,13.02
2023-02-22T14:09:48.598Z,11.23
2023-02-22T14:12:30.349Z,12.50
2023-02-22T14:15:29.818Z,12.55
2023-02-22T14:17:56.812Z,12.90
2023-02-22T14:20:31.138Z,11.77
2023-02-22T14:23:32.181Z,11.70
2023-02-22T14:26:10.518Z,13.20
2023-02-22T14:28:54.426Z,10.68
2023-02-22T14:31:36.979Z,12.38
2023-02-22T14:34:06.421Z,14.27
2023-02-22T14:36:34.191Z,11.68
2023-02-22T14:39:23.795Z,10.48
2023-02-22T14:42:01.435Z,11.68
2023-02-22T14:44:35.874Z,11.30
2023-02-22T14:47:05.451Z,11.88
2023-02-22T14:49:38.036Z,10.95
2023-02-22T14:52:18.498Z,11.48
2023-02-22T14:55:04.401Z,10.30
2023-02-22T14:57:44.922Z,11.63
2023-02-22T15:00:30.929Z,10.70
2023-02-22T15:03:01.202Z,10.80
2023-02-22T15:05:34.416Z,10.80
2023-02-22T15:08:03.733Z,10.18
2023-02-22T15:10:32.832Z,11.38
2023-02-22T15:13:09.636Z,10.98
2023-02-22T15:15:47.539Z,15.35
2023-02-22T15:18:30.280Z,12.95
2023-02-22T15:21:03.476Z,11.25
2023-02-22T15:23:45.094Z,14.10
2023-02-22T15:26:24.713Z,10.90
2023-02-22T15:28:56.567Z,13.05
2023-02-22T15:31:31.318Z,11.70
2023-02-22T15:34:08.970Z,13.05
2023-02-22T15:36:35.552Z,12.93
2023-02-22T15:39:08.204Z,11.05
2023-02-22T15:41:35.414Z,12.77
2023-02-22T15:44:22.731Z,15.13
2023-02-22T15:46:50.220Z,16.77
2023-02-22T15:49:16.750Z,13.85
2023-02-22T15:51:49.108Z,12.70
2023-02-22T15:54:26.488Z,12.10
2023-02-22T15:56:56.454Z,11.55
2023-02-22T15:59:29.573Z,12.10
2023-02-22T16:01:58.457Z,12.90
2023-02-22T16:04:29.542Z,13.52
2023-02-22T16:07:16.999Z,12.68
2023-02-22T16:09:51.278Z,13.65
2023-02-22T16:12:20.611Z,12.25
2023-02-22T16:14:48.926Z,11.77
2023-02-22T16:17:49.344Z,12.23
2023-02-22T16:20:22.101Z,12.93
2023-02-22T16:22:49.821Z,13.10
2023-02-22T16:25:19.142Z,14.13
2023-02-22T16:28:06.235Z,13.98
2023-02-22T16:30:40.052Z,12.30
2023-02-22T16:33:13.517Z,15.60
2023-02-22T16:35:40.633Z,14.52
2023-02-22T16:38:16.913Z,14.43
2023-02-22T16:40:55.183Z,15.68
2023-02-22T16:43:25.234Z,12.90
2023-02-22T16:45:53.185Z,15.25
2023-02-22T16:48:22.496Z,14.18
2023-02-22T16:50:51.508Z,17.45
2023-02-22T16:53:21.183Z,17.20
2023-02-22T16:55:48.940Z,16.92
2023-02-22T16:58:17.499Z,15.80
2023-02-22T17:00:44.454Z,17.73
2023-02-22T17:03:16.461Z,20.55
2023-02-22T17:05:43.803Z,18.75
2023-02-22T17:08:10.502Z,20.05
2023-02-22T17:10:37.200Z,20.55
2023-02-22T17:13:21.604Z,25.00
2023-02-22T17:15:48.956Z,21.20
2023-02-22T17:18:17.532Z,22.90
2023-02-22T17:20:44.982Z,21.80
2023-02-22T17:23:11.779Z,24.27
2023-02-22T17:25:44.915Z,25.42
2023-02-22T17:28:11.601Z,26.77
2023-02-22T17:30:39.076Z,26.52
2023-02-22T17:33:08.112Z,24.50
2023-02-22T17:35:37.986Z,22.77
2023-02-22T17:38:09.587Z,23.02
2023-02-22T17:40:39.281Z,27.65
2023-02-22T17:43:08.878Z,24.58
2023-02-22T17:45:39.436Z,24.20
2023-02-22T17:48:06.555Z,24.27
2023-02-22T17:50:33.598Z,25.08
2023-02-22T17:53:00.685Z,24.40
2023-02-22T17:55:27.981Z,24.95
2023-02-22T17:57:59.659Z,25.42
2023-02-22T18:00:33.119Z,28.52
2023-02-22T18:03:06.175Z,31.40
2023-02-22T18:05:34.100Z,25.83
2023-02-22T18:08:00.730Z,23.58
2023-02-22T18:10:27.503Z,25.00
2023-02-22T18:12:55.114Z,26.17
2023-02-22T18:15:21.738Z,25.88
2023-02-22T18:17:48.930Z,28.52
2023-02-22T18:20:20.368Z,26.85
2023-02-22T18:22:47.042Z,28.40
2023-02-22T18:25:15.828Z,30.40
2023-02-22T18:27:45.739Z,28.02
2023-02-22T18:30:12.890Z,29.05
2023-02-22T18:32:39.764Z,28.83
2023-02-22T18:35:06.728Z,28.83
2023-02-22T18:37:34.422Z,29.20
2023-02-22T18:40:01.261Z,30.92
2023-02-22T18:42:28.373Z,29.30
2023-02-22T18:45:00.626Z,28.27
2023-02-22T18:47:27.527Z,28.45
2023-02-22T18:49:54.236Z,29.52
2023-02-22T18:52:21.101Z,28.00
2023-02-22T18:54:49.358Z,28.05
2023-02-22T18:57:16.283Z,29.23
2023-02-22T18:59:43.715Z,28.52
2023-02-22T19:02:15.305Z,30.33
2023-02-22T19:04:44.164Z,27.63
2023-02-22T19:07:10.775Z,31.40
2023-02-22T19:09:37.480Z,35.15
2023-02-22T19:12:04.308Z,30.75
2023-02-22T19:14:30.909Z,28.40
2023-02-22T19:17:01.428Z,32.38
2023-02-22T19:19:31.875Z,31.02
2023-02-22T19:21:59.095Z,31.88
2023-02-22T19:24:25.823Z,31.92
2023-02-22T19:26:53.803Z,31.38
2023-02-22T19:29:23.840Z,31.88
2023-02-22T19:31:51.742Z,32.67
2023-02-22T19:34:21.837Z,33.33
2023-02-22T19:36:49.039Z,34.97
2023-02-22T19:39:17.999Z,34.78
2023-02-22T19:41:45.216Z,34.22
2023-02-22T19:44:12.421Z,31.67
2023-02-22T19:46:39.631Z,30.38
2023-02-22T19:49:07.464Z,29.90
2023-02-22T19:51:34.480Z,30.33
2023-02-22T19:54:04.929Z,28.58
2023-02-22T19:56:32.426Z,43.25
2023-02-22T19:59:01.605Z,39.30
2023-02-22T20:01:33.028Z,43.13
2023-02-22T20:04:05.538Z,38.75
2023-02-22T20:06:35.765Z,32.85
2023-02-22T20:09:03.423Z,30.58
2023-02-22T20:11:30.095Z,33.75
2023-02-22T20:13:56.743Z,33.78
2023-02-22T20:16:23.896Z,33.08
2023-02-22T20:18:51.394Z,33.20
2023-02-22T20:21:38.211Z,32.58
2023-02-22T20:24:11.993Z,33.00
2023-02-22T20:26:39.488Z,30.42
2023-02-22T20:29:09.104Z,29.35
2023-02-22T20:31:37.028Z,27.95
2023-02-22T20:34:06.257Z,29.55
2023-02-22T20:36:36.618Z,30.70
2023-02-22T20:39:13.205Z,27.23
2023-02-22T20:41:42.234Z,33.60
2023-02-22T20:44:12.152Z,32.03
2023-02-22T20:46:38.968Z,30.73
2023-02-22T20:49:08.425Z,27.58
2023-02-22T20:51:35.731Z,29.55
2023-02-22T20:54:02.581Z,29.92
2023-02-22T20:56:32.202Z,30.27
2023-02-22T20:59:01.032Z,28.67
2023-02-22T21:01:28.204Z,30.20
2023-02-22T21:04:00.422Z,29.67
2023-02-22T21:06:27.670Z,30.60
2023-02-22T21:08:58.374Z,30.02
2023-02-22T21:11:28.398Z,30.55
2023-02-22T21:13:55.043Z,29.13
2023-02-22T21:16:27.645Z,28.92
2023-02-22T21:18:56.189Z,29.20
2023-02-22T21:21:22.982Z,26.73
2023-02-22T21:23:51.750Z,27.77
2023-02-22T21:26:25.015Z,29.73
2023-02-22T21:28:52.512Z,29.08
2023-02-22T21:31:24.625Z,30.42
2023-02-22T21:33:53.811Z,29.40
2023-02-22T21:36:25.314Z,29.60
2023-02-22T21:38:55.176Z,28.95
2023-02-22T21:41:27.741Z,29.90
2023-02-22T21:43:56.577Z,29.35
2023-02-22T21:46:24.502Z,29.00
2023-02-22T21:48:51.313Z,29.85
2023-02-22T21:51:25.581Z,26.90
2023-02-22T21:53:54.534Z,27.67
2023-02-22T21:56:27.695Z,36.03
2023-02-22T21:59:04.962Z,43.30
2023-02-22T22:01:38.761Z,34.08
2023-02-22T22:04:05.440Z,34.97
2023-02-22T22:06:34.688Z,33.65
2023-02-22T22:09:04.493Z,30.25
2023-02-22T22:11:31.137Z,32.15
2023-02-22T22:13:59.621Z,29.15
2023-02-22T22:16:29.902Z,34.25
2023-02-22T22:18:56.879Z,30.83
2023-02-22T22:21:24.497Z,29.57
2023-02-22T22:23:56.005Z,29.63
2023-02-22T22:26:24.869Z,30.17
2023-02-22T22:28:58.127Z,32.45
2023-02-22T22:31:26.513Z,29.17
2023-02-22T22:33:55.136Z,33.13
2023-02-22T22:36:23.843Z,30.95
2023-02-22T22:38:52.623Z,30.65
2023-02-22T22:41:21.857Z,30.27
2023-02-22T22:43:48.537Z,31.10
2023-02-22T22:46:17.850Z,27.38
2023-02-22T22:48:47.113Z,27.70
2023-02-22T22:51:20.644Z,26.95
2023-02-22T22:53:49.480Z,27.02
2023-02-22T22:56:25.995Z,27.77
2023-02-22T22:58:57.993Z,25.48
2023-02-22T23:01:27.377Z,24.73
2023-02-22T23:03:58.703Z,23.80
2023-02-22T23:06:31.018Z,24.27
2023-02-22T23:09:13.103Z,22.20
2023-02-22T23:12:10.153Z,25.17
2023-02-22T23:14:44.245Z,23.02
2023-02-22T23:17:15.397Z,20.20
2023-02-22T23:19:44.875Z,23.45
2023-02-22T23:22:14.250Z,22.95
2023-02-22T23:24:41.207Z,22.60
2023-02-22T23:27:10.688Z,25.25
2023-02-22T23:29:39.853Z,24.50
2023-02-22T23:32:07.154Z,22.92
2023-02-22T23:34:35.896Z,24.48
2023-02-22T23:37:03.192Z,26.13
2023-02-22T23:39:29.964Z,25.77
2023-02-22T23:41:59.514Z,22.45
2023-02-22T23:44:27.276Z,21.40
2023-02-22T23:46:57.320Z,21.20
2023-02-22T23:49:27.138Z,21.23
2023-02-22T23:51:54.849Z,21.80
2023-02-22T23:54:21.721Z,23.42
2023-02-22T23:56:58.382Z,21.63
2023-02-22T23:59:26.697Z,25.42
